createdAt,value
2018-08-12T00:03:11.368Z,10.75
2018-08-12T00:08:15.023Z,8.20
2018-08-12T00:13:18.746Z,9.80
2018-08-12T00:18:22.403Z,10.00
2018-08-12T00:23:26.155Z,10.00
2018-08-12T00:28:29.943Z,8.00
2018-08-12T00:33:33.574Z,8.75
2018-08-12T00:38:37.294Z,8.20
2018-08-12T00:43:41.015Z,6.60
2018-08-12T00:48:44.809Z,8.00
2018-08-12T00:53:48.499Z,8.75
2018-08-12T00:58:52.152Z,7.00
2018-08-12T01:03:56.041Z,7.00
2018-08-12T01:08:59.776Z,7.40
2018-08-12T01:14:03.790Z,8.00
2018-08-12T01:19:07.501Z,8.75
2018-08-12T01:24:11.223Z,7.25
2018-08-12T01:29:14.874Z,6.60
2018-08-12T01:34:18.533Z,6.75
2018-08-12T01:39:22.174Z,6.20
2018-08-12T01:44:25.829Z,6.00
2018-08-12T01:49:29.473Z,8.75
2018-08-12T01:54:33.302Z,6.40
2018-08-12T01:59:36.958Z,6.00
2018-08-12T02:04:40.601Z,8.00
2018-08-12T02:09:44.306Z,7.80
2018-08-12T02:14:48.077Z,7.00
2018-08-12T02:19:51.712Z,6.50
2018-08-12T02:24:55.454Z,7.00
2018-08-12T02:29:59.198Z,7.00
2018-08-12T02:35:03.576Z,6.60
2018-08-12T02:40:09.172Z,6.40
2018-08-12T02:45:15.132Z,6.67
2018-08-12T02:50:18.849Z,6.80
2018-08-12T02:55:22.509Z,7.60
2018-08-12T03:00:27.077Z,6.50
2018-08-12T03:05:30.847Z,6.50
2018-08-12T03:10:34.629Z,7.00
2018-08-12T03:15:38.368Z,6.75
2018-08-12T03:20:42.109Z,8.25
2018-08-12T03:25:45.758Z,7.50
2018-08-12T03:30:49.450Z,6.50
2018-08-12T03:35:53.183Z,6.20
2018-08-12T03:40:56.885Z,7.60
2018-08-12T03:46:01.042Z,6.00
2018-08-12T03:51:04.781Z,7.75
2018-08-12T03:56:08.541Z,7.20
2018-08-12T04:01:12.272Z,7.25
2018-08-12T04:06:15.953Z,8.00
2018-08-12T04:11:19.599Z,7.40
2018-08-12T04:16:23.288Z,7.00
2018-08-12T04:21:26.955Z,8.00
2018-08-12T04:26:30.602Z,8.50
2018-08-12T04:31:34.349Z,7.25
2018-08-12T04:36:38.274Z,6.80
2018-08-12T04:41:43.657Z,8.60
2018-08-12T04:46:47.479Z,7.25
2018-08-12T04:51:51.158Z,6.25
2018-08-12T04:56:55.502Z,7.00
2018-08-12T05:01:59.455Z,7.00
2018-08-12T05:07:03.237Z,6.50
2018-08-12T05:12:07.089Z,8.80
2018-08-12T05:17:10.813Z,6.60
2018-08-12T05:22:14.530Z,8.75
2018-08-12T05:27:18.463Z,7.00
2018-08-12T05:32:22.387Z,6.50
2018-08-12T05:37:26.257Z,7.00
2018-08-12T05:42:29.991Z,7.00
2018-08-12T05:47:34.154Z,6.80
2018-08-12T05:52:37.835Z,6.00
2018-08-12T05:57:41.539Z,8.75
2018-08-12T06:02:46.290Z,6.00
2018-08-12T06:07:50.119Z,5.00
2018-08-12T06:12:53.907Z,6.50
2018-08-12T06:17:57.803Z,5.75
2018-08-12T06:23:01.642Z,7.00
2018-08-12T06:28:05.390Z,7.00
2018-08-12T06:33:09.080Z,6.00
2018-08-12T06:38:12.777Z,7.00
2018-08-12T06:43:16.534Z,6.25
2018-08-12T06:48:20.161Z,6.00
2018-08-12T06:53:23.830Z,5.00
2018-08-12T06:58:27.582Z,5.00
2018-08-12T07:03:31.201Z,6.00
2018-08-12T07:08:34.950Z,6.20
2018-08-12T07:13:38.683Z,5.25
2018-08-12T07:18:42.359Z,6.00
2018-08-12T07:23:46.080Z,5.20
2018-08-12T07:28:49.666Z,18.60
2018-08-12T07:33:53.365Z,10.75
2018-08-12T07:38:57.098Z,7.25
2018-08-12T07:44:01.103Z,5.00
2018-08-12T07:49:05.001Z,6.20
2018-08-12T07:54:08.653Z,6.25
2018-08-12T07:59:12.297Z,5.25
2018-08-12T08:04:15.942Z,6.00
2018-08-12T08:09:19.683Z,6.00
2018-08-12T08:14:23.318Z,6.00
2018-08-12T08:19:27.092Z,7.20
2018-08-12T08:24:30.861Z,6.00
2018-08-12T08:29:35.162Z,5.00
2018-08-12T08:34:39.280Z,4.60
2018-08-12T08:39:43.017Z,4.25
2018-08-12T08:44:46.667Z,4.75
2018-08-12T08:49:50.417Z,4.50
2018-08-12T08:54:54.125Z,5.00
2018-08-12T08:59:57.938Z,4.80
2018-08-12T09:05:09.609Z,3.00
2018-08-12T09:10:15.104Z,4.00
2018-08-12T09:15:20.125Z,4.20
2018-08-12T09:20:23.786Z,3.80
2018-08-12T09:25:27.510Z,4.00
2018-08-12T09:30:37.064Z,3.00
2018-08-12T09:35:40.898Z,3.00
2018-08-12T09:40:44.536Z,3.00
2018-08-12T09:45:48.257Z,3.00
2018-08-12T09:50:51.878Z,2.25
2018-08-12T09:55:55.601Z,3.00
2018-08-12T10:00:59.261Z,2.25
2018-08-12T10:06:02.912Z,3.00
2018-08-12T10:11:06.569Z,3.00
2018-08-12T10:16:10.375Z,2.00
2018-08-12T10:21:14.167Z,4.00
2018-08-12T10:26:17.877Z,2.80
2018-08-12T10:31:26.897Z,3.25
2018-08-12T10:36:31.017Z,2.00
2018-08-12T10:41:36.932Z,3.00
2018-08-12T10:46:41.601Z,3.75
2018-08-12T10:51:47.017Z,3.50
2018-08-12T11:02:05.574Z,2.00
2018-08-12T11:07:13.065Z,3.00
2018-08-12T11:12:19.223Z,3.25
2018-08-12T11:17:25.429Z,4.00
2018-08-12T11:22:29.195Z,2.40
2018-08-12T11:27:33.154Z,3.00
2018-08-12T11:32:36.862Z,3.00
2018-08-12T11:37:42.045Z,2.00
2018-08-12T11:42:45.786Z,3.20
2018-08-12T11:47:49.909Z,3.00
2018-08-12T11:52:53.526Z,2.00
2018-08-12T11:57:57.224Z,2.00
2018-08-12T12:03:12.782Z,3.00
2018-08-12T12:08:20.169Z,2.00
2018-08-12T12:13:30.203Z,2.00
2018-08-12T12:18:36.022Z,2.40
2018-08-12T12:23:39.724Z,3.00
2018-08-12T12:28:43.341Z,2.00
2018-08-12T12:33:47.652Z,3.00
2018-08-12T12:38:51.867Z,2.25
2018-08-12T12:43:55.619Z,2.25
2018-08-12T12:48:59.790Z,3.00
2018-08-12T12:54:03.620Z,3.00
2018-08-12T12:59:07.409Z,3.00
2018-08-12T13:04:11.170Z,3.00
2018-08-12T13:09:15.019Z,2.60
2018-08-12T13:14:18.666Z,3.00
2018-08-12T13:19:23.050Z,3.00
2018-08-12T13:24:26.838Z,2.25
2018-08-12T13:29:30.590Z,2.00
2018-08-12T13:34:34.433Z,2.00
2018-08-12T13:39:38.114Z,2.60
2018-08-12T13:44:42.930Z,2.00
2018-08-12T13:49:46.690Z,2.00
2018-08-12T13:54:50.404Z,2.75
2018-08-12T13:59:54.466Z,2.00
2018-08-12T14:04:58.122Z,2.00
2018-08-12T14:10:01.872Z,2.00
2018-08-12T14:15:07.826Z,2.00
2018-08-12T14:20:12.598Z,2.00
2018-08-12T14:25:16.188Z,2.00
2018-08-12T14:30:21.141Z,3.00
2018-08-12T14:35:24.787Z,2.00
2018-08-12T14:40:28.560Z,2.00
2018-08-12T14:45:32.466Z,3.00
2018-08-12T14:50:36.110Z,2.00
2018-08-12T14:55:39.842Z,2.25
2018-08-12T15:00:43.543Z,3.00
2018-08-12T15:05:47.174Z,1.75
2018-08-12T15:10:50.784Z,3.00
2018-08-12T15:15:54.410Z,1.50
2018-08-12T15:20:58.153Z,2.00
2018-08-12T15:26:01.822Z,2.00
2018-08-12T15:31:05.482Z,2.00
2018-08-12T15:36:09.257Z,2.20
2018-08-12T15:41:12.968Z,2.00
2018-08-12T15:46:16.664Z,2.00
2018-08-12T15:51:20.342Z,2.00
2018-08-12T15:56:24.238Z,2.25
2018-08-12T16:01:28.036Z,2.00
2018-08-12T16:06:31.853Z,2.00
2018-08-12T16:11:35.467Z,2.00
2018-08-12T16:16:39.552Z,2.00
2018-08-12T16:21:43.200Z,1.75
2018-08-12T16:26:46.857Z,2.00
2018-08-12T16:31:50.850Z,2.00
2018-08-12T16:36:54.658Z,2.00
2018-08-12T16:41:58.547Z,2.00
2018-08-12T16:47:02.823Z,3.00
2018-08-12T16:52:06.646Z,2.00
2018-08-12T16:57:11.042Z,1.50
2018-08-12T17:02:15.081Z,1.40
2018-08-12T17:07:19.254Z,2.00
2018-08-12T17:12:23.776Z,2.00
2018-08-12T17:17:28.160Z,1.00
2018-08-12T17:22:33.320Z,2.00
2018-08-12T17:27:37.657Z,2.00
2018-08-12T17:32:41.491Z,2.00
2018-08-12T17:37:45.976Z,2.00
2018-08-12T17:42:49.802Z,2.00
2018-08-12T17:47:53.919Z,2.00
2018-08-12T17:52:58.137Z,2.00
2018-08-12T17:58:01.882Z,2.00
2018-08-12T18:03:05.804Z,1.25
2018-08-12T18:08:09.702Z,2.75
2018-08-12T18:13:14.039Z,1.00
2018-08-12T18:18:18.139Z,2.00
2018-08-12T18:23:21.731Z,1.40
2018-08-12T18:28:25.526Z,2.00
2018-08-12T18:33:29.175Z,1.00
2018-08-12T18:38:32.779Z,2.50
2018-08-12T18:43:36.593Z,2.00
2018-08-12T18:48:40.317Z,2.00
2018-08-12T18:53:43.969Z,2.20
2018-08-12T18:58:47.590Z,2.00
2018-08-12T19:03:51.263Z,2.75
2018-08-12T19:08:54.937Z,2.60
2018-08-12T19:14:05.115Z,2.25
2018-08-12T19:19:08.759Z,2.20
2018-08-12T19:24:12.330Z,2.75
2018-08-12T19:29:15.983Z,3.00
2018-08-12T19:34:19.621Z,2.00
2018-08-12T19:39:23.260Z,2.75
2018-08-12T19:44:26.957Z,3.80
2018-08-12T19:49:31.064Z,3.75
2018-08-12T19:54:35.061Z,3.40
2018-08-12T19:59:39.481Z,3.00
2018-08-12T20:04:44.201Z,3.60
2018-08-12T20:09:49.554Z,3.00
2018-08-12T20:14:57.917Z,2.40
2018-08-12T20:20:03.830Z,3.00
2018-08-12T20:25:10.305Z,3.33
2018-08-12T20:30:15.871Z,3.50
2018-08-12T20:35:22.088Z,4.00
2018-08-12T20:40:29.142Z,4.00
2018-08-12T20:45:33.110Z,4.00
2018-08-12T20:50:38.570Z,3.40
2018-08-12T20:55:44.583Z,4.00
2018-08-12T21:00:49.531Z,4.00
2018-08-12T21:05:54.881Z,4.50
2018-08-12T21:10:59.771Z,4.50
2018-08-12T21:16:03.382Z,3.75
2018-08-12T21:21:07.015Z,4.00
2018-08-12T21:26:10.809Z,4.40
2018-08-12T21:31:17.219Z,3.75
2018-08-12T21:36:20.818Z,4.00
2018-08-12T21:41:24.467Z,4.00
2018-08-12T21:46:28.130Z,3.00
2018-08-12T21:51:31.718Z,3.00
2018-08-12T21:56:35.376Z,3.50
2018-08-12T22:01:39.391Z,4.00
2018-08-12T22:06:43.003Z,3.00
2018-08-12T22:11:46.647Z,4.00
2018-08-12T22:16:50.391Z,2.75
2018-08-12T22:21:54.162Z,4.60
2018-08-12T22:26:57.798Z,3.75
2018-08-12T22:32:01.381Z,4.00
2018-08-12T22:37:05.186Z,4.00
2018-08-12T22:42:08.838Z,5.00
2018-08-12T22:47:21.601Z,6.00
2018-08-12T22:52:32.566Z,5.50
2018-08-12T22:57:36.755Z,6.00
2018-08-12T23:02:40.298Z,6.00
2018-08-12T23:07:44.068Z,7.80
2018-08-12T23:12:47.702Z,6.80
2018-08-12T23:17:51.236Z,7.00
2018-08-12T23:22:55.652Z,6.80
2018-08-12T23:27:59.274Z,6.00
2018-08-12T23:33:02.896Z,5.20
2018-08-12T23:38:06.631Z,6.25
2018-08-12T23:43:10.287Z,6.00
2018-08-12T23:48:13.907Z,5.50
2018-08-12T23:53:24.113Z,6.00
2018-08-12T23:58:28.427Z,5.00
